Time;durP1;ratioP1;P1;durP2;ratioP2;P2;SDS_P1;SDS_P2;PMS_P1;PMS_P2;Temp;Humidity;BMP_temperature;BMP_pressure;BME280_temperature;BME280_humidity;BME280_pressure;Samples;Min_cycle;Max_cycle;Signal;HPM_P1;HPM_P2
2022/05/24 00:05:57;;;;;;;6.30;3.10;;;;;;;;;;4416287;79;28918;-76
2022/05/24 00:12:04;;;;;;;5.47;3.52;;;;;;;;;;4428303;79;28505;-76
2022/05/24 00:18:13;;;;;;;5.03;3.85;;;;;;;;;;4454674;79;28528;-77
2022/05/24 00:24:19;;;;;;;6.95;3.87;;;;;;;;;;4449961;79;28523;-77
2022/05/24 00:30:21;;;;;;;5.12;3.10;;;;;;;;;;4434017;79;28464;-76
2022/05/24 00:36:22;;;;;;;5.55;3.50;;;;;;;;;;4466500;79;28549;-75
2022/05/24 00:42:26;;;;;;;7.55;4.10;;;;;;;;;;4473627;78;28554;-76
2022/05/24 00:48:36;;;;;;;7.87;4.33;;;;;;;;;;4410374;79;28579;-78
2022/05/24 00:54:44;;;;;;;6.17;4.00;;;;;;;;;;4490625;79;28558;-77
2022/05/24 01:00:51;;;;;;;6.33;3.47;;;;;;;;;;4451193;79;28563;-76
2022/05/24 01:06:58;;;;;;;6.10;3.83;;;;;;;;;;4449483;78;28506;-76
2022/05/24 01:13:07;;;;;;;5.40;3.67;;;;;;;;;;4391117;80;28528;-76
2022/05/24 01:19:10;;;;;;;5.22;4.00;;;;;;;;;;4415721;79;28559;-75
2022/05/24 01:25:25;;;;;;;8.23;4.20;;;;;;;;;;4416768;79;29124;-76
2022/05/24 01:36:09;;;;;;;7.62;4.50;;;;;;;;;;4423421;78;28512;-77
2022/05/24 01:37:31;;;;;;;8.08;4.67;;;;;;;;;;4455557;79;28551;-77
2022/05/24 01:43:32;;;;;;;7.67;4.67;;;;;;;;;;4410726;78;28495;-77
2022/05/24 01:49:34;;;;;;;7.95;4.53;;;;;;;;;;4452247;79;28495;-77
2022/05/24 01:55:37;;;;;;;7.33;4.28;;;;;;;;;;4433902;78;28547;-77
2022/05/24 02:01:40;;;;;;;7.58;4.28;;;;;;;;;;4454182;79;28496;-77
2022/05/24 02:07:47;;;;;;;8.33;4.33;;;;;;;;;;4426055;79;28537;-79
2022/05/24 02:13:59;;;;;;;6.28;3.55;;;;;;;;;;4419137;79;28514;-82
2022/05/24 02:20:05;;;;;;;6.40;3.70;;;;;;;;;;4371372;79;28508;-81
2022/05/24 02:26:07;;;;;;;7.55;4.30;;;;;;;;;;4451459;80;28508;-82
2022/05/24 02:32:08;;;;;;;7.37;4.30;;;;;;;;;;4452525;79;28485;-82
2022/05/24 02:38:09;;;;;;;8.65;4.25;;;;;;;;;;4454378;78;28533;-80
2022/05/24 02:44:12;;;;;;;6.22;3.87;;;;;;;;;;4422555;79;28477;-80
2022/05/24 02:50:14;;;;;;;6.42;4.17;;;;;;;;;;4423371;79;28557;-79
2022/05/24 02:56:15;;;;;;;5.22;3.85;;;;;;;;;;4413611;79;28439;-79
2022/05/24 03:02:16;;;;;;;5.53;3.40;;;;;;;;;;4432723;80;28579;-78
2022/05/24 03:14:36;;;;;;;5.75;4.40;;;;;;;;;;4417924;79;28512;-79
2022/05/24 03:20:38;;;;;;;7.33;3.87;;;;;;;;;;4395892;79;28578;-80
2022/05/24 03:26:39;;;;;;;8.63;4.10;;;;;;;;;;4400634;80;28556;-79
2022/05/24 03:32:39;;;;;;;6.60;4.50;;;;;;;;;;4416456;80;28493;-81
2022/05/24 03:38:40;;;;;;;6.37;4.53;;;;;;;;;;4377881;79;28520;-81
2022/05/24 03:44:42;;;;;;;7.35;4.53;;;;;;;;;;4418240;79;28534;-81
2022/05/24 03:50:49;;;;;;;9.13;4.65;;;;;;;;;;4425325;79;28524;-81
2022/05/24 04:03:09;;;;;;;7.83;4.08;;;;;;;;;;4390119;79;20680;-80
2022/05/24 04:09:10;;;;;;;5.17;3.80;;;;;;;;;;4405526;80;28547;-81
2022/05/24 04:15:19;;;;;;;5.80;4.08;;;;;;;;;;4423026;79;28527;-81
2022/05/24 04:21:20;;;;;;;6.67;4.35;;;;;;;;;;4387546;79;28498;-81
2022/05/24 04:27:21;;;;;;;6.37;4.08;;;;;;;;;;4424379;80;28466;-80
2022/05/24 04:33:22;;;;;;;5.70;4.08;;;;;;;;;;4411321;79;28511;-79
2022/05/24 04:39:24;;;;;;;8.00;4.62;;;;;;;;;;4444028;78;28562;-80
2022/05/24 04:45:25;;;;;;;7.78;4.50;;;;;;;;;;4432076;78;28516;-77
2022/05/24 04:51:26;;;;;;;7.95;4.78;;;;;;;;;;4450297;78;28559;-77
2022/05/24 04:57:33;;;;;;;8.13;4.62;;;;;;;;;;4448046;79;28468;-77
2022/05/24 05:03:40;;;;;;;9.00;5.12;;;;;;;;;;4452361;79;28524;-77
2022/05/24 05:09:43;;;;;;;;;;;;;;;;;;4438564;78;28531;-77
2022/05/24 05:15:44;;;;;;;9.28;4.97;;;;;;;;;;4474100;78;20208;-77
2022/05/24 05:21:45;;;;;;;10.65;5.30;;;;;;;;;;4451973;79;28515;-75
2022/05/24 05:27:52;;;;;;;9.55;5.40;;;;;;;;;;4432777;79;28539;-77
2022/05/24 05:33:56;;;;;;;8.63;5.08;;;;;;;;;;4420957;78;28541;-81
2022/05/24 05:39:57;;;;;;;11.83;5.60;;;;;;;;;;4417629;79;28523;-78
2022/05/24 05:46:04;;;;;;;13.83;5.78;;;;;;;;;;4384553;79;28505;-78
2022/05/24 05:52:05;;;;;;;13.22;5.62;;;;;;;;;;4412289;79;28578;-79
2022/05/24 05:58:06;;;;;;;15.32;5.78;;;;;;;;;;4382996;80;28624;-78
2022/05/24 06:04:07;;;;;;;14.03;6.28;;;;;;;;;;4391537;80;28540;-79
2022/05/24 06:10:09;;;;;;;19.62;5.95;;;;;;;;;;4403457;80;28481;-78
2022/05/24 06:16:10;;;;;;;23.15;5.85;;;;;;;;;;4407712;79;28493;-78
2022/05/24 06:22:11;;;;;;;19.20;6.10;;;;;;;;;;4441267;79;28564;-78
2022/05/24 06:28:13;;;;;;;17.07;6.67;;;;;;;;;;4422928;80;28493;-79
2022/05/24 06:34:13;;;;;;;13.62;5.80;;;;;;;;;;4425074;78;28590;-79
2022/05/24 06:40:16;;;;;;;14.63;6.00;;;;;;;;;;4409320;78;28528;-78
2022/05/24 06:46:22;;;;;;;10.43;5.58;;;;;;;;;;4452579;80;28604;-78
2022/05/24 06:52:30;;;;;;;12.35;5.92;;;;;;;;;;4419968;78;28520;-79
2022/05/24 06:58:31;;;;;;;10.58;5.35;;;;;;;;;;4447320;78;28500;-79
2022/05/24 07:04:32;;;;;;;13.08;5.87;;;;;;;;;;4419638;78;28546;-78
2022/05/24 07:10:34;;;;;;;16.00;5.67;;;;;;;;;;4448971;78;28544;-78
2022/05/24 07:16:41;;;;;;;11.73;5.35;;;;;;;;;;4445238;79;28546;-78
2022/05/24 07:22:42;;;;;;;8.28;5.65;;;;;;;;;;4441277;80;28517;-79
2022/05/24 07:28:49;;;;;;;11.83;5.53;;;;;;;;;;4431318;78;28509;-79
2022/05/24 07:34:50;;;;;;;12.30;5.70;;;;;;;;;;4410255;80;28920;-79
2022/05/24 07:47:16;;;;;;;9.80;6.45;;;;;;;;;;4424964;78;28521;-79
2022/05/24 07:53:25;;;;;;;;;;;;;;;;;;4463731;78;28465;-79
2022/05/24 07:59:33;;;;;;;13.20;6.28;;;;;;;;;;4453594;78;20472;-79
2022/05/24 08:05:35;;;;;;;10.43;5.62;;;;;;;;;;4490227;77;28556;-79
2022/05/24 08:11:42;;;;;;;12.73;5.80;;;;;;;;;;4500004;78;28526;-78
2022/05/24 08:17:43;;;;;;;11.60;5.05;;;;;;;;;;4523129;77;28545;-79
2022/05/24 08:23:43;;;;;;;13.13;5.33;;;;;;;;;;4498539;77;28523;-79
2022/05/24 08:29:44;;;;;;;9.75;5.10;;;;;;;;;;4479106;78;28518;-79
2022/05/24 08:35:45;;;;;;;9.95;5.12;;;;;;;;;;4499390;78;28539;-78
2022/05/24 08:42:03;;;;;;;8.78;4.80;;;;;;;;;;4488909;79;28519;-78
2022/05/24 08:48:23;;;;;;;11.97;5.05;;;;;;;;;;4457154;78;28533;-78
2022/05/24 08:54:30;;;;;;;13.13;4.97;;;;;;;;;;4420102;79;28550;-79
2022/05/24 09:00:33;;;;;;;12.98;5.00;;;;;;;;;;4488825;79;28531;-78
2022/05/24 09:06:39;;;;;;;12.03;5.20;;;;;;;;;;4475137;79;28553;-79
2022/05/24 09:12:39;;;;;;;;;;;;;;;;;;4454262;79;28597;-80
2022/05/24 09:18:48;;;;;;;11.55;4.80;;;;;;;;;;4457221;78;20217;-79
2022/05/24 09:24:56;;;;;;;12.98;5.22;;;;;;;;;;4463520;78;28483;-79
2022/05/24 09:30:58;;;;;;;11.03;4.70;;;;;;;;;;4458456;78;28556;-79
2022/05/24 09:37:01;;;;;;;11.78;5.22;;;;;;;;;;4450941;79;28529;-79
2022/05/24 09:43:03;;;;;;;11.85;5.22;;;;;;;;;;4438514;79;28523;-78
2022/05/24 09:49:11;;;;;;;12.15;4.90;;;;;;;;;;4423761;79;28537;-78
2022/05/24 09:55:20;;;;;;;9.18;4.75;;;;;;;;;;4421815;79;28538;-79
2022/05/24 10:01:30;;;;;;;10.08;5.15;;;;;;;;;;4393867;79;28502;-78
2022/05/24 10:07:32;;;;;;;10.90;4.90;;;;;;;;;;4394263;78;28504;-78
2022/05/24 10:13:39;;;;;;;12.55;5.05;;;;;;;;;;4382553;79;28545;-78
2022/05/24 10:19:47;;;;;;;14.13;4.42;;;;;;;;;;4443466;78;28487;-79
2022/05/24 10:25:50;;;;;;;8.23;4.67;;;;;;;;;;4397482;79;28504;-77
2022/05/24 10:31:56;;;;;;;7.53;4.45;;;;;;;;;;4436801;79;28476;-78
2022/05/24 10:38:18;;;;;;;9.30;4.13;;;;;;;;;;4490213;77;28534;-78
2022/05/24 10:44:21;;;;;;;12.58;4.22;;;;;;;;;;4479389;77;29051;-78
2022/05/24 10:50:24;;;;;;;9.65;4.03;;;;;;;;;;4499185;77;28506;-79
2022/05/24 10:56:30;;;;;;;12.70;3.80;;;;;;;;;;4477942;78;28538;-79
2022/05/24 11:02:49;;;;;;;9.83;4.07;;;;;;;;;;4498538;78;28620;-79
2022/05/24 11:08:58;;;;;;;10.82;4.28;;;;;;;;;;4485460;78;28486;-79
2022/05/24 11:15:05;;;;;;;8.28;3.90;;;;;;;;;;4487682;77;28441;-80
2022/05/24 11:21:10;;;;;;;7.40;4.20;;;;;;;;;;4509259;77;28529;-79
2022/05/24 11:27:16;;;;;;;7.08;3.52;;;;;;;;;;4463934;78;28459;-80
2022/05/24 11:33:17;;;;;;;;;;;;;;;;;;4505941;78;28491;-79
2022/05/24 11:39:26;;;;;;;7.92;3.85;;;;;;;;;;4476490;77;20595;-79
2022/05/24 11:45:32;;;;;;;9.98;4.20;;;;;;;;;;4465911;79;28509;-79
2022/05/24 11:51:41;;;;;;;7.15;3.58;;;;;;;;;;4458448;79;28550;-79
2022/05/24 11:57:42;;;;;;;8.83;4.90;;;;;;;;;;4475699;78;28559;-79
2022/05/24 12:10:24;;;;;;;8.43;4.12;;;;;;;;;;4418347;79;28476;-78
2022/05/24 12:16:33;;;;;;;9.53;4.57;;;;;;;;;;4469267;78;28562;-78
2022/05/24 12:22:41;;;;;;;12.85;4.03;;;;;;;;;;4488901;79;28472;-79
2022/05/24 12:28:50;;;;;;;11.20;4.30;;;;;;;;;;4459653;79;28473;-78
2022/05/24 12:34:52;;;;;;;11.18;4.80;;;;;;;;;;4475584;79;28487;-78
2022/05/24 12:40:57;;;;;;;9.58;4.35;;;;;;;;;;4456987;78;28535;-78
2022/05/24 12:47:00;;;;;;;10.05;5.42;;;;;;;;;;4472698;79;28551;-78
2022/05/24 12:53:03;;;;;;;9.20;4.62;;;;;;;;;;4476200;78;28516;-78
2022/05/24 12:59:12;;;;;;;12.63;4.90;;;;;;;;;;4480868;78;28569;-78
2022/05/24 13:05:28;;;;;;;6.55;2.85;;;;;;;;;;4414668;78;28596;-79
2022/05/24 13:11:29;;;;;;;3.63;2.47;;;;;;;;;;4445107;78;28539;-79
2022/05/24 13:17:32;;;;;;;9.20;2.98;;;;;;;;;;4413757;79;28553;-79
2022/05/24 13:23:34;;;;;;;4.62;2.67;;;;;;;;;;4415228;79;28511;-78
2022/05/24 13:36:15;;;;;;;8.30;2.50;;;;;;;;;;4495167;79;28496;-79
2022/05/24 13:42:26;;;;;;;5.45;2.60;;;;;;;;;;4418246;80;28482;-80
2022/05/24 13:48:28;;;;;;;5.47;2.83;;;;;;;;;;4334030;80;28596;-78
2022/05/24 13:54:33;;;;;;;3.52;2.77;;;;;;;;;;4346193;80;28449;-78
2022/05/24 14:00:42;;;;;;;5.00;3.07;;;;;;;;;;4403016;79;28537;-78
2022/05/24 14:06:51;;;;;;;4.10;2.70;;;;;;;;;;4372353;79;28524;-79
2022/05/24 14:12:58;;;;;;;4.90;3.20;;;;;;;;;;4381933;79;28474;-79
2022/05/24 14:18:59;;;;;;;5.55;3.08;;;;;;;;;;4381839;79;28476;-79
2022/05/24 14:25:00;;;;;;;6.08;2.70;;;;;;;;;;4412393;79;28485;-79
2022/05/24 14:31:01;;;;;;;5.92;2.77;;;;;;;;;;4351204;79;28515;-79
2022/05/24 14:37:03;;;;;;;4.05;2.67;;;;;;;;;;4401273;79;28522;-79
2022/05/24 14:43:07;;;;;;;11.48;2.92;;;;;;;;;;4417613;79;28493;-80
2022/05/24 14:49:09;;;;;;;7.40;3.10;;;;;;;;;;4437250;79;28533;-79
2022/05/24 14:55:27;;;;;;;5.62;2.70;;;;;;;;;;4366565;79;28508;-80
2022/05/24 15:01:35;;;;;;;5.08;2.67;;;;;;;;;;4380154;79;28558;-76
2022/05/24 15:20:34;;;;;;;7.40;2.60;;;;;;;;;;4369303;78;28555;-77
2022/05/24 15:26:55;;;;;;;6.62;2.80;;;;;;;;;;4447586;78;28531;-77
2022/05/24 15:32:57;;;;;;;4.28;2.50;;;;;;;;;;4369786;79;28591;-76
2022/05/24 15:39:02;;;;;;;3.62;2.60;;;;;;;;;;4380158;78;28525;-78
2022/05/24 15:45:04;;;;;;;4.45;2.27;;;;;;;;;;4382828;80;28513;-79
2022/05/24 15:51:11;;;;;;;5.17;2.40;;;;;;;;;;4390446;80;28567;-77
2022/05/24 15:57:12;;;;;;;7.67;2.60;;;;;;;;;;4376398;80;28490;-77
2022/05/24 16:03:18;;;;;;;5.22;2.62;;;;;;;;;;4395726;80;28518;-78
2022/05/24 16:15:58;;;;;;;5.33;2.60;;;;;;;;;;4381557;80;28531;-78
2022/05/24 16:22:02;;;;;;;5.37;2.90;;;;;;;;;;4373999;80;28532;-78
2022/05/24 16:28:11;;;;;;;5.45;2.90;;;;;;;;;;4387488;80;28493;-78
2022/05/24 16:34:12;;;;;;;7.00;2.77;;;;;;;;;;4371681;80;28486;-76
2022/05/24 16:40:14;;;;;;;5.45;3.17;;;;;;;;;;4382351;79;28540;-76
2022/05/24 16:46:15;;;;;;;4.03;2.95;;;;;;;;;;4379392;80;28538;-77
2022/05/24 16:52:22;;;;;;;7.37;3.58;;;;;;;;;;4377344;80;28459;-77
2022/05/24 16:58:45;;;;;;;6.72;3.30;;;;;;;;;;4383507;80;28522;-77
2022/05/24 17:04:51;;;;;;;9.13;3.37;;;;;;;;;;4374129;80;28484;-77
2022/05/24 17:10:52;;;;;;;6.72;4.25;;;;;;;;;;4380353;80;28531;-76
2022/05/24 17:16:53;;;;;;;7.85;4.33;;;;;;;;;;4380053;80;28505;-76
2022/05/24 17:22:54;;;;;;;6.22;4.03;;;;;;;;;;4378565;80;28964;-76
2022/05/24 17:28:55;;;;;;;6.28;4.28;;;;;;;;;;4381444;80;28634;-76
2022/05/24 17:34:58;;;;;;;7.17;4.42;;;;;;;;;;4393454;80;28530;-77
2022/05/24 17:41:01;;;;;;;5.87;4.65;;;;;;;;;;4386580;80;28576;-76
2022/05/24 17:47:02;;;;;;;9.33;5.00;;;;;;;;;;4369799;80;28508;-76
2022/05/24 17:53:03;;;;;;;7.75;5.53;;;;;;;;;;4370737;80;28631;-76
2022/05/24 17:59:04;;;;;;;7.67;5.20;;;;;;;;;;4385493;80;28561;-77
2022/05/24 18:05:15;;;;;;;8.88;5.67;;;;;;;;;;4368072;80;28703;-77
2022/05/24 18:11:15;;;;;;;8.68;5.78;;;;;;;;;;4377864;80;28509;-81
2022/05/24 18:17:16;;;;;;;7.22;5.28;;;;;;;;;;4380688;80;28427;-81
2022/05/24 18:23:19;;;;;;;6.75;5.05;;;;;;;;;;4370300;80;28516;-80
2022/05/24 18:35:42;;;;;;;6.55;4.92;;;;;;;;;;4371665;80;28520;-80
2022/05/24 18:41:43;;;;;;;7.83;5.45;;;;;;;;;;4412246;79;28539;-77
2022/05/24 18:47:44;;;;;;;6.42;5.40;;;;;;;;;;4455391;79;28515;-76
2022/05/24 18:53:45;;;;;;;9.75;5.72;;;;;;;;;;4415336;80;28549;-77
2022/05/24 18:59:46;;;;;;;9.28;5.97;;;;;;;;;;4399109;80;28563;-77
2022/05/24 19:05:46;;;;;;;9.98;6.22;;;;;;;;;;4370483;79;28503;-77
2022/05/24 19:11:47;;;;;;;10.23;6.47;;;;;;;;;;4417119;80;28462;-77
2022/05/24 19:17:49;;;;;;;6.85;6.08;;;;;;;;;;4418327;79;28537;-77
2022/05/24 19:23:50;;;;;;;9.33;6.55;;;;;;;;;;4405718;79;28505;-79
2022/05/24 19:29:53;;;;;;;10.15;7.17;;;;;;;;;;4402921;80;28492;-79
2022/05/24 19:35:54;;;;;;;10.38;7.55;;;;;;;;;;4404908;79;28512;-79
2022/05/24 19:41:54;;;;;;;11.73;7.87;;;;;;;;;;4397060;79;28557;-78
2022/05/24 19:48:01;;;;;;;12.50;7.55;;;;;;;;;;4406335;79;28506;-79
2022/05/24 19:54:04;;;;;;;12.15;8.75;;;;;;;;;;4434160;79;28619;-79
2022/05/24 20:00:07;;;;;;;13.35;8.65;;;;;;;;;;4419946;79;28557;-76
2022/05/24 20:06:08;;;;;;;12.80;8.43;;;;;;;;;;4415264;79;28509;-79
2022/05/24 20:12:11;;;;;;;12.18;9.50;;;;;;;;;;4433305;79;28497;-78
2022/05/24 20:18:17;;;;;;;14.47;10.45;;;;;;;;;;4406228;79;28462;-78
2022/05/24 20:24:24;;;;;;;15.05;10.60;;;;;;;;;;4418850;79;28562;-80
2022/05/24 20:30:24;;;;;;;14.73;10.00;;;;;;;;;;4420512;79;28533;-79
2022/05/24 20:36:25;;;;;;;14.33;10.20;;;;;;;;;;4415032;79;28522;-79
2022/05/24 20:42:26;;;;;;;15.35;10.85;;;;;;;;;;4418034;79;28525;-78
2022/05/24 20:48:27;;;;;;;15.78;11.33;;;;;;;;;;4417808;79;28515;-78
2022/05/24 20:54:28;;;;;;;13.22;10.10;;;;;;;;;;4422335;79;28545;-78
2022/05/24 21:00:29;;;;;;;14.68;10.58;;;;;;;;;;4415979;79;28534;-77
2022/05/24 21:06:30;;;;;;;15.72;10.72;;;;;;;;;;4420206;79;28557;-77
2022/05/24 21:12:39;;;;;;;14.05;10.78;;;;;;;;;;4427622;78;28531;-78
2022/05/24 21:18:41;;;;;;;14.23;10.88;;;;;;;;;;4421423;80;28474;-78
2022/05/24 21:24:42;;;;;;;14.43;11.20;;;;;;;;;;4406958;79;28511;-77
2022/05/24 21:30:44;;;;;;;15.88;11.03;;;;;;;;;;4440229;79;28552;-78
2022/05/24 21:36:45;;;;;;;15.32;11.50;;;;;;;;;;4412116;79;28509;-79
2022/05/24 21:42:46;;;;;;;17.87;11.70;;;;;;;;;;4438947;79;28470;-80
2022/05/24 21:48:47;;;;;;;16.15;11.50;;;;;;;;;;4478053;78;28485;-79
2022/05/24 21:54:53;;;;;;;14.28;11.10;;;;;;;;;;4483369;77;28478;-78
2022/05/24 22:00:56;;;;;;;;;;;;;;;;;;4464118;78;28617;-80
2022/05/24 22:06:56;;;;;;;16.50;12.60;;;;;;;;;;4431756;79;20176;-79
2022/05/24 22:12:57;;;;;;;18.05;11.97;;;;;;;;;;4418563;79;28454;-77
2022/05/24 22:19:05;;;;;;;17.40;12.35;;;;;;;;;;4434650;79;28507;-82
2022/05/24 22:25:06;;;;;;;15.38;11.97;;;;;;;;;;4409050;79;28510;-81
2022/05/24 22:31:07;;;;;;;15.10;11.45;;;;;;;;;;4417305;79;28457;-82
2022/05/24 22:37:14;;;;;;;15.60;12.60;;;;;;;;;;4432808;79;28493;-81
2022/05/24 22:43:15;;;;;;;16.23;12.25;;;;;;;;;;4419424;79;28564;-82
2022/05/24 22:49:22;;;;;;;15.10;12.25;;;;;;;;;;4417497;79;28474;-80
2022/05/24 22:55:23;;;;;;;17.10;11.55;;;;;;;;;;4393785;79;28546;-81
2022/05/24 23:01:24;;;;;;;14.83;11.35;;;;;;;;;;4428506;79;28501;-80
2022/05/24 23:07:26;;;;;;;14.70;11.12;;;;;;;;;;4366635;80;28552;-82
2022/05/24 23:13:27;;;;;;;15.15;11.50;;;;;;;;;;4419420;79;28517;-81
2022/05/24 23:19:28;;;;;;;18.42;12.07;;;;;;;;;;4345144;80;28481;-81
2022/05/24 23:25:29;;;;;;;16.32;12.03;;;;;;;;;;4427461;80;28472;-79
2022/05/24 23:31:32;;;;;;;14.70;11.75;;;;;;;;;;4494397;78;28567;-79
2022/05/24 23:37:32;;;;;;;14.78;11.50;;;;;;;;;;4522003;78;28481;-78
2022/05/24 23:43:33;;;;;;;15.28;11.88;;;;;;;;;;4437932;80;28525;-79
2022/05/24 23:49:41;;;;;;;14.80;11.85;;;;;;;;;;4431961;80;28500;-79
2022/05/24 23:55:50;;;;;;;;;;;;;;;;;;4436303;80;28576;-79
